createdAt,value
2022-07-30T00:00:30.074Z,16.22
2022-07-30T00:01:02.062Z,16.22
2022-07-30T00:01:34.085Z,16.22
2022-07-30T00:02:06.022Z,16.22
2022-07-30T00:02:38.026Z,16.22
2022-07-30T00:03:10.011Z,16.22
2022-07-30T00:03:42.078Z,16.22
2022-07-30T00:04:14.065Z,16.22
2022-07-30T00:04:46.049Z,16.22
2022-07-30T00:05:18.020Z,16.22
2022-07-30T00:05:50.013Z,16.22
2022-07-30T00:06:22.018Z,16.22
2022-07-30T00:06:54.018Z,16.22
2022-07-30T00:07:26.014Z,16.22
2022-07-30T00:07:58.023Z,16.22
2022-07-30T00:08:30.011Z,16.22
2022-07-30T00:09:02.073Z,16.22
2022-07-30T00:09:34.315Z,16.22
2022-07-30T00:10:06.022Z,16.22
2022-07-30T00:10:38.025Z,16.22
2022-07-30T00:11:10.013Z,16.22
2022-07-30T00:11:42.021Z,16.22
2022-07-30T00:12:14.023Z,16.22
2022-07-30T00:12:46.018Z,16.22
2022-07-30T00:13:18.016Z,16.11
2022-07-30T00:13:50.062Z,16.11
2022-07-30T00:14:22.051Z,16.11
2022-07-30T00:14:54.026Z,16.11
2022-07-30T00:15:26.039Z,16.11
2022-07-30T00:15:58.035Z,16.11
2022-07-30T00:16:30.059Z,16.11
2022-07-30T00:17:02.543Z,16.11
2022-07-30T00:17:34.031Z,16.11
2022-07-30T00:18:06.037Z,16.11
2022-07-30T00:18:38.070Z,16.11
2022-07-30T00:19:10.052Z,16.11
2022-07-30T00:19:42.024Z,16.11
2022-07-30T00:20:14.028Z,16.22
2022-07-30T00:20:46.028Z,16.22
2022-07-30T00:21:29.134Z,16.22
2022-07-30T00:21:50.019Z,16.22
2022-07-30T00:22:22.045Z,16.22
2022-07-30T00:22:54.020Z,16.22
2022-07-30T00:23:26.079Z,16.22
2022-07-30T00:24:01.592Z,16.22
2022-07-30T00:24:30.032Z,16.22
2022-07-30T00:25:02.035Z,16.22
2022-07-30T00:25:34.028Z,16.27
2022-07-30T00:26:06.045Z,16.27
2022-07-30T00:26:38.029Z,16.27
2022-07-30T00:27:10.029Z,16.27
2022-07-30T00:27:42.032Z,16.22
2022-07-30T00:28:14.088Z,16.22
2022-07-30T00:28:46.080Z,16.22
2022-07-30T00:29:18.031Z,16.22
2022-07-30T00:29:50.033Z,16.22
2022-07-30T00:30:22.053Z,16.11
2022-07-30T00:30:56.201Z,16.11
2022-07-30T00:31:26.052Z,16.11
2022-07-30T00:31:58.045Z,16.11
2022-07-30T00:32:30.065Z,16.11
2022-07-30T00:33:02.103Z,16.11
2022-07-30T00:33:34.084Z,16.11
2022-07-30T00:34:06.053Z,16.11
2022-07-30T00:34:38.055Z,16.11
2022-07-30T00:35:10.045Z,16.11
2022-07-30T00:35:42.054Z,16.11
2022-07-30T00:36:14.054Z,16.11
2022-07-30T00:36:46.041Z,16.11
2022-07-30T00:37:18.047Z,16.11
2022-07-30T00:37:50.117Z,16.11
2022-07-30T00:38:22.082Z,16.11
2022-07-30T00:38:54.062Z,16.11
2022-07-30T00:39:26.066Z,16.11
2022-07-30T00:39:58.056Z,16.11
2022-07-30T00:40:30.054Z,16.11
2022-07-30T00:41:02.067Z,16.11
2022-07-30T00:41:34.066Z,16.11
2022-07-30T00:42:06.063Z,16.11
2022-07-30T00:42:38.123Z,16.00
2022-07-30T00:43:10.069Z,16.00
2022-07-30T00:43:42.060Z,16.00
2022-07-30T00:44:14.058Z,16.00
2022-07-30T00:44:46.062Z,16.00
2022-07-30T00:45:18.082Z,16.00
2022-07-30T00:45:50.141Z,16.00
2022-07-30T00:46:22.067Z,16.00
2022-07-30T00:46:54.065Z,16.00
2022-07-30T00:47:26.146Z,16.00
2022-07-30T00:47:58.096Z,16.00
2022-07-30T00:48:30.072Z,16.00
2022-07-30T00:49:02.151Z,16.00
2022-07-30T00:49:34.087Z,16.00
2022-07-30T00:50:06.078Z,16.00
2022-07-30T00:50:38.072Z,16.00
2022-07-30T00:51:10.075Z,16.00
2022-07-30T00:51:42.078Z,16.00
2022-07-30T00:52:14.173Z,16.00
2022-07-30T00:52:46.089Z,16.00
2022-07-30T00:53:18.083Z,16.00
2022-07-30T00:53:50.083Z,16.00
2022-07-30T00:54:22.082Z,16.00
2022-07-30T00:54:54.076Z,16.00
2022-07-30T00:55:26.082Z,16.00
2022-07-30T00:55:58.081Z,16.00
2022-07-30T00:56:30.078Z,16.00
2022-07-30T00:57:02.426Z,16.00
2022-07-30T00:57:34.106Z,16.00
2022-07-30T00:58:06.087Z,16.00
2022-07-30T00:58:38.086Z,16.00
2022-07-30T00:59:10.082Z,16.00
2022-07-30T00:59:42.086Z,16.00
2022-07-30T01:00:14.570Z,16.00
2022-07-30T01:00:46.137Z,15.88
2022-07-30T01:01:18.145Z,15.88
2022-07-30T01:01:50.164Z,15.88
2022-07-30T01:02:22.170Z,15.88
2022-07-30T01:02:54.091Z,15.88
2022-07-30T01:03:26.096Z,15.88
2022-07-30T01:03:58.092Z,15.88
2022-07-30T01:04:30.095Z,15.88
2022-07-30T01:05:02.099Z,15.88
2022-07-30T01:05:34.096Z,15.88
2022-07-30T01:06:06.091Z,15.88
2022-07-30T01:06:38.147Z,15.88
2022-07-30T01:07:10.105Z,15.88
2022-07-30T01:07:42.096Z,15.88
2022-07-30T01:08:14.096Z,15.88
2022-07-30T01:08:46.091Z,15.88
2022-07-30T01:09:18.087Z,15.88
2022-07-30T01:09:50.089Z,15.88
2022-07-30T01:10:22.095Z,15.88
2022-07-30T01:10:54.100Z,15.88
2022-07-30T01:11:26.153Z,15.77
2022-07-30T01:11:58.106Z,15.77
2022-07-30T01:12:30.113Z,15.77
2022-07-30T01:13:02.112Z,15.77
2022-07-30T01:13:34.104Z,15.77
2022-07-30T01:14:06.104Z,15.77
2022-07-30T01:14:38.111Z,15.77
2022-07-30T01:15:10.133Z,15.77
2022-07-30T01:15:42.107Z,15.77
2022-07-30T01:16:14.259Z,15.77
2022-07-30T01:16:46.167Z,15.77
2022-07-30T01:17:18.110Z,15.77
2022-07-30T01:17:53.131Z,15.77
2022-07-30T01:18:22.364Z,15.77
2022-07-30T01:18:54.124Z,15.77
2022-07-30T01:19:26.122Z,15.77
2022-07-30T01:19:58.121Z,15.77
2022-07-30T01:20:30.131Z,15.77
2022-07-30T01:21:02.191Z,15.77
2022-07-30T01:21:34.125Z,15.77
2022-07-30T01:22:06.125Z,15.77
2022-07-30T01:22:38.135Z,15.77
2022-07-30T01:23:10.128Z,15.77
2022-07-30T01:23:43.393Z,15.77
2022-07-30T01:24:14.131Z,15.77
2022-07-30T01:24:46.136Z,15.77
2022-07-30T01:25:18.137Z,15.77
2022-07-30T01:25:50.187Z,15.77
2022-07-30T01:28:35.413Z,15.77
2022-07-30T01:29:02.144Z,15.77
2022-07-30T01:29:34.131Z,15.77
2022-07-30T01:30:06.160Z,15.77
2022-07-30T01:30:38.218Z,15.77
2022-07-30T01:31:10.197Z,15.77
2022-07-30T01:31:42.288Z,15.77
2022-07-30T01:32:14.168Z,15.72
2022-07-30T01:32:46.156Z,15.72
2022-07-30T01:33:18.148Z,15.72
2022-07-30T01:33:50.153Z,15.72
2022-07-30T01:34:22.160Z,15.72
2022-07-30T01:34:54.137Z,15.72
2022-07-30T01:35:26.227Z,15.72
2022-07-30T01:35:58.146Z,15.72
2022-07-30T01:36:30.146Z,15.72
2022-07-30T01:37:02.508Z,15.72
2022-07-30T01:37:34.158Z,15.72
2022-07-30T01:38:06.153Z,15.72
2022-07-30T01:38:38.144Z,15.72
2022-07-30T01:39:10.144Z,15.72
2022-07-30T01:39:42.143Z,15.72
2022-07-30T01:40:14.227Z,15.72
2022-07-30T01:40:46.149Z,15.72
2022-07-30T01:41:18.153Z,15.72
2022-07-30T01:41:50.149Z,15.72
2022-07-30T01:42:22.166Z,15.72
2022-07-30T01:42:54.154Z,15.72
2022-07-30T01:43:26.159Z,15.72
2022-07-30T01:43:58.168Z,15.72
2022-07-30T01:44:30.159Z,15.72
2022-07-30T01:45:02.261Z,15.72
2022-07-30T01:45:36.214Z,15.72
2022-07-30T01:46:06.261Z,15.72
2022-07-30T01:46:38.173Z,15.72
2022-07-30T01:47:10.171Z,15.61
2022-07-30T01:47:42.169Z,15.61
2022-07-30T01:48:14.184Z,15.61
2022-07-30T01:48:46.278Z,15.72
2022-07-30T01:49:18.290Z,15.72
2022-07-30T01:49:50.251Z,15.72
2022-07-30T01:50:22.172Z,15.72
2022-07-30T01:50:54.176Z,15.72
2022-07-30T01:51:26.182Z,15.72
2022-07-30T01:51:58.176Z,15.72
2022-07-30T01:52:30.210Z,15.72
2022-07-30T01:53:02.178Z,15.61
2022-07-30T01:53:34.180Z,15.61
2022-07-30T01:54:06.175Z,15.61
2022-07-30T01:54:38.263Z,15.61
2022-07-30T01:55:16.930Z,15.61
2022-07-30T01:55:42.184Z,15.61
2022-07-30T01:56:16.843Z,15.61
2022-07-30T01:56:46.192Z,15.61
2022-07-30T01:57:18.189Z,15.61
2022-07-30T01:57:50.195Z,15.61
2022-07-30T01:58:22.187Z,15.61
2022-07-30T01:58:54.199Z,15.61
2022-07-30T01:59:26.302Z,15.61
2022-07-30T01:59:58.191Z,15.72
2022-07-30T02:00:30.353Z,15.72
2022-07-30T02:01:02.944Z,15.72
2022-07-30T02:01:34.195Z,15.72
2022-07-30T02:02:06.194Z,15.72
2022-07-30T02:02:38.206Z,15.72
2022-07-30T02:03:10.231Z,15.72
2022-07-30T02:03:42.216Z,15.72
2022-07-30T02:04:14.280Z,15.72
2022-07-30T02:04:46.208Z,15.72
2022-07-30T02:05:18.199Z,15.72
2022-07-30T02:05:50.203Z,15.72
2022-07-30T02:06:22.203Z,15.61
2022-07-30T02:06:54.202Z,15.61
2022-07-30T02:07:26.201Z,15.61
2022-07-30T02:07:58.212Z,15.61
2022-07-30T02:08:30.204Z,15.61
2022-07-30T02:09:02.296Z,15.61
2022-07-30T02:09:34.248Z,15.61
2022-07-30T02:10:06.214Z,15.61
2022-07-30T02:10:38.210Z,15.61
2022-07-30T02:11:10.221Z,15.61
2022-07-30T02:11:42.209Z,15.61
2022-07-30T02:12:14.249Z,15.61
2022-07-30T02:12:46.199Z,15.61
2022-07-30T02:13:18.217Z,15.61
2022-07-30T02:13:50.223Z,15.61
2022-07-30T02:14:22.268Z,15.61
2022-07-30T02:14:54.222Z,15.61
2022-07-30T02:15:26.378Z,15.61
2022-07-30T02:15:58.273Z,15.61
2022-07-30T02:16:30.247Z,15.61
2022-07-30T02:17:02.757Z,15.61
2022-07-30T02:17:34.773Z,15.61
2022-07-30T02:18:06.219Z,15.61
2022-07-30T02:18:39.724Z,15.61
2022-07-30T02:19:10.270Z,15.61
2022-07-30T02:19:42.222Z,15.61
2022-07-30T02:20:14.225Z,15.61
2022-07-30T02:20:46.221Z,15.61
2022-07-30T02:21:18.229Z,15.61
2022-07-30T02:21:50.811Z,15.61
2022-07-30T02:22:22.744Z,15.61
2022-07-30T02:22:54.230Z,15.61
2022-07-30T02:23:26.270Z,15.61
2022-07-30T02:23:58.280Z,15.61
2022-07-30T02:24:30.236Z,15.61
2022-07-30T02:25:02.244Z,15.61
2022-07-30T02:25:34.245Z,15.61
2022-07-30T02:26:06.233Z,15.61
2022-07-30T02:26:38.249Z,15.61
2022-07-30T02:27:10.231Z,15.61
2022-07-30T02:27:42.250Z,15.61
2022-07-30T02:28:14.275Z,15.61
2022-07-30T02:28:46.278Z,15.61
2022-07-30T02:29:18.241Z,15.61
2022-07-30T02:29:50.249Z,15.61
2022-07-30T02:30:22.413Z,15.61
2022-07-30T02:30:54.247Z,15.61
2022-07-30T02:31:26.305Z,15.61
2022-07-30T02:31:58.263Z,15.61
2022-07-30T02:32:30.267Z,15.61
2022-07-30T02:33:02.297Z,15.61
2022-07-30T02:33:34.290Z,15.50
2022-07-30T02:34:06.247Z,15.50
2022-07-30T02:34:38.253Z,15.50
2022-07-30T02:35:10.249Z,15.50
2022-07-30T02:35:42.246Z,15.50
2022-07-30T02:36:14.244Z,15.50
2022-07-30T02:36:46.250Z,15.50
2022-07-30T02:37:18.297Z,15.50
2022-07-30T02:37:50.625Z,15.50
2022-07-30T02:38:22.295Z,15.50
2022-07-30T02:38:54.259Z,15.50
2022-07-30T02:39:26.252Z,15.50
2022-07-30T02:39:58.256Z,15.50
2022-07-30T02:40:30.261Z,15.50
2022-07-30T02:41:02.276Z,15.50
2022-07-30T02:41:34.259Z,15.50
2022-07-30T02:42:06.259Z,15.50
2022-07-30T02:42:38.317Z,15.50
2022-07-30T02:43:10.288Z,15.50
2022-07-30T02:43:42.257Z,15.50
2022-07-30T02:44:14.258Z,15.50
2022-07-30T02:44:46.256Z,15.50
2022-07-30T02:45:18.443Z,15.50
2022-07-30T02:45:50.272Z,15.50
2022-07-30T02:46:22.374Z,15.50
2022-07-30T02:46:54.337Z,15.50
2022-07-30T02:47:26.317Z,15.50
2022-07-30T02:47:58.310Z,15.50
2022-07-30T02:48:34.363Z,15.50
2022-07-30T02:49:02.340Z,15.50
2022-07-30T02:49:34.270Z,15.50
2022-07-30T02:50:06.281Z,15.50
2022-07-30T02:50:38.277Z,15.50
2022-07-30T02:51:10.281Z,15.50
2022-07-30T02:51:42.280Z,15.50
2022-07-30T02:52:14.365Z,15.38
2022-07-30T02:52:46.312Z,15.38
2022-07-30T02:53:18.278Z,15.38
2022-07-30T02:53:51.912Z,15.38
2022-07-30T02:54:22.280Z,15.38
2022-07-30T02:54:54.278Z,15.38
2022-07-30T02:55:26.281Z,15.38
2022-07-30T02:55:58.278Z,15.38
2022-07-30T02:56:30.278Z,15.38
2022-07-30T02:57:02.886Z,15.38
2022-07-30T02:57:34.313Z,15.38
2022-07-30T02:58:06.277Z,15.38
2022-07-30T02:58:38.276Z,15.38
2022-07-30T02:59:10.280Z,15.38
2022-07-30T02:59:42.277Z,15.38
2022-07-30T03:00:14.448Z,15.38
2022-07-30T03:00:46.353Z,15.38
2022-07-30T03:01:18.373Z,15.38
2022-07-30T03:01:50.428Z,15.38
2022-07-30T03:02:29.442Z,15.38
2022-07-30T03:02:56.576Z,15.38
2022-07-30T03:03:26.306Z,15.38
2022-07-30T03:03:58.305Z,15.38
2022-07-30T03:04:30.306Z,15.38
2022-07-30T03:05:02.307Z,15.38
2022-07-30T03:05:34.314Z,15.27
2022-07-30T03:06:06.305Z,15.27
2022-07-30T03:06:38.361Z,15.27
2022-07-30T03:07:10.596Z,15.27
2022-07-30T03:07:42.311Z,15.27
2022-07-30T03:08:14.310Z,15.27
2022-07-30T03:08:46.319Z,15.27
2022-07-30T03:09:18.305Z,15.27
2022-07-30T03:09:52.260Z,15.27
2022-07-30T03:10:22.316Z,15.27
2022-07-30T03:10:54.310Z,15.38
2022-07-30T03:11:26.371Z,15.38
2022-07-30T03:11:58.344Z,15.38
2022-07-30T03:12:30.331Z,15.38
2022-07-30T03:13:02.321Z,15.38
2022-07-30T03:13:34.315Z,15.38
2022-07-30T03:14:06.311Z,15.50
2022-07-30T03:14:38.314Z,15.50
2022-07-30T03:15:10.473Z,15.50
2022-07-30T03:15:42.998Z,15.50
2022-07-30T03:16:14.425Z,15.38
2022-07-30T03:16:46.361Z,15.38
2022-07-30T03:17:18.328Z,15.38
2022-07-30T03:17:50.342Z,15.38
2022-07-30T03:18:22.334Z,15.38
2022-07-30T03:18:54.340Z,15.38
2022-07-30T03:19:26.335Z,15.38
2022-07-30T03:19:58.345Z,15.38
2022-07-30T03:20:30.336Z,15.27
2022-07-30T03:21:02.394Z,15.27
2022-07-30T03:21:34.362Z,15.27
2022-07-30T03:22:06.336Z,15.27
2022-07-30T03:22:38.348Z,15.27
2022-07-30T03:23:10.335Z,15.38
2022-07-30T03:23:42.331Z,15.38
2022-07-30T03:24:14.332Z,15.38
2022-07-30T03:24:46.341Z,15.38
2022-07-30T03:25:18.338Z,15.38
2022-07-30T03:25:54.501Z,15.38
2022-07-30T03:26:22.352Z,15.38
2022-07-30T03:26:54.331Z,15.38
2022-07-30T03:27:26.341Z,15.38
2022-07-30T03:27:58.360Z,15.38
2022-07-30T03:28:30.353Z,15.38
2022-07-30T03:29:02.348Z,15.38
2022-07-30T03:29:34.351Z,15.38
2022-07-30T03:30:06.511Z,15.38
2022-07-30T03:30:38.413Z,15.38
2022-07-30T03:31:10.391Z,15.38
2022-07-30T03:31:42.431Z,15.38
2022-07-30T03:32:15.055Z,15.38
2022-07-30T03:32:46.355Z,15.38
2022-07-30T03:33:18.357Z,15.38
2022-07-30T03:33:50.361Z,15.38
2022-07-30T03:34:22.377Z,15.38
2022-07-30T03:34:54.366Z,15.38
2022-07-30T03:35:26.415Z,15.38
2022-07-30T03:35:58.938Z,15.38
2022-07-30T03:36:30.358Z,15.38
2022-07-30T03:37:02.683Z,15.38
2022-07-30T03:37:34.364Z,15.38
2022-07-30T03:38:06.360Z,15.38
2022-07-30T03:38:38.356Z,15.38
2022-07-30T03:39:10.373Z,15.38
2022-07-30T03:39:42.363Z,15.38
2022-07-30T03:40:14.415Z,15.38
2022-07-30T03:40:46.360Z,15.38
2022-07-30T03:41:18.362Z,15.38
2022-07-30T03:41:50.359Z,15.38
2022-07-30T03:42:22.371Z,15.38
2022-07-30T03:42:54.354Z,15.38
2022-07-30T03:43:33.338Z,15.38
2022-07-30T03:43:58.368Z,15.38
2022-07-30T03:44:30.362Z,15.38
2022-07-30T03:45:02.645Z,15.38
2022-07-30T03:45:34.368Z,15.38
2022-07-30T03:46:07.154Z,15.38
2022-07-30T03:46:38.412Z,15.38
2022-07-30T03:47:10.370Z,15.38
2022-07-30T03:47:42.379Z,15.38
2022-07-30T03:48:14.381Z,15.38
2022-07-30T03:48:46.453Z,15.38
2022-07-30T03:49:18.439Z,15.38
2022-07-30T03:49:50.435Z,15.38
2022-07-30T03:50:22.376Z,15.38
2022-07-30T03:50:54.374Z,15.38
2022-07-30T03:51:26.373Z,15.38
2022-07-30T03:51:58.373Z,15.38
2022-07-30T03:52:30.399Z,15.38
2022-07-30T03:53:02.389Z,15.38
2022-07-30T03:53:34.394Z,15.38
2022-07-30T03:54:10.451Z,15.38
2022-07-30T03:54:38.456Z,15.38
2022-07-30T03:55:10.392Z,15.38
2022-07-30T03:55:42.453Z,15.38
2022-07-30T03:56:14.387Z,15.38
2022-07-30T03:56:46.405Z,15.38
2022-07-30T03:57:20.343Z,15.38
2022-07-30T03:57:50.415Z,15.38
2022-07-30T03:58:22.403Z,15.38
2022-07-30T03:58:54.424Z,15.38
2022-07-30T03:59:26.513Z,15.38
2022-07-30T03:59:58.399Z,15.38
2022-07-30T04:00:30.558Z,15.38
2022-07-30T04:01:02.414Z,15.38
2022-07-30T04:01:34.526Z,15.38
2022-07-30T04:02:07.322Z,15.38
2022-07-30T04:02:38.431Z,15.38
2022-07-30T04:03:10.421Z,15.38
2022-07-30T04:03:42.437Z,15.50
2022-07-30T04:04:14.495Z,15.50
2022-07-30T04:04:46.420Z,15.38
2022-07-30T04:05:18.423Z,15.38
2022-07-30T04:05:50.418Z,15.38
2022-07-30T04:06:22.433Z,15.38
2022-07-30T04:06:54.435Z,15.38
2022-07-30T04:07:26.429Z,15.38
2022-07-30T04:07:58.434Z,15.38
2022-07-30T04:08:30.442Z,15.38
2022-07-30T04:09:02.502Z,15.38
2022-07-30T04:09:34.429Z,15.38
2022-07-30T04:10:06.425Z,15.38
2022-07-30T04:10:38.429Z,15.38
2022-07-30T04:11:10.432Z,15.38
2022-07-30T04:11:42.436Z,15.50
2022-07-30T04:12:14.441Z,15.50
2022-07-30T04:12:46.429Z,15.50
2022-07-30T04:13:18.426Z,15.50
2022-07-30T04:13:50.509Z,15.50
2022-07-30T04:14:22.439Z,15.50
2022-07-30T04:14:54.441Z,15.50
2022-07-30T04:16:38.116Z,15.50
2022-07-30T04:17:00.668Z,15.50
2022-07-30T04:17:32.539Z,15.50
2022-07-30T04:18:04.450Z,15.50
2022-07-30T04:18:36.439Z,15.50
2022-07-30T04:19:08.442Z,15.50
2022-07-30T04:19:40.439Z,15.50
2022-07-30T04:20:16.427Z,15.50
2022-07-30T04:20:44.516Z,15.50
2022-07-30T04:21:17.417Z,15.38
2022-07-30T04:21:48.439Z,15.50
2022-07-30T04:22:20.451Z,15.50
2022-07-30T04:22:52.454Z,15.50
2022-07-30T04:23:24.442Z,15.50
2022-07-30T04:24:03.691Z,15.50
2022-07-30T04:24:28.453Z,15.50
2022-07-30T04:25:00.447Z,15.50
2022-07-30T04:25:32.533Z,15.50
2022-07-30T04:26:04.448Z,15.50
2022-07-30T04:26:36.448Z,15.50
2022-07-30T04:27:08.446Z,15.50
2022-07-30T04:28:03.160Z,15.50
2022-07-30T04:28:12.459Z,15.50
2022-07-30T04:28:44.453Z,15.50
2022-07-30T04:29:20.211Z,15.50
2022-07-30T04:29:48.451Z,15.50
2022-07-30T04:30:20.746Z,15.50
2022-07-30T04:30:52.550Z,15.61
2022-07-30T04:31:24.562Z,15.61
2022-07-30T04:31:56.448Z,15.61
2022-07-30T04:32:28.467Z,15.61
2022-07-30T04:33:00.446Z,15.61
2022-07-30T04:33:32.453Z,15.61
2022-07-30T04:34:04.543Z,15.61
2022-07-30T04:34:37.181Z,15.61
2022-07-30T04:35:08.451Z,15.61
2022-07-30T04:35:50.298Z,15.61
2022-07-30T04:36:16.235Z,15.61
2022-07-30T04:36:44.454Z,15.61
2022-07-30T04:37:16.562Z,15.61
2022-07-30T04:37:48.464Z,15.61
2022-07-30T04:38:20.470Z,15.61
2022-07-30T04:38:52.456Z,15.61
2022-07-30T04:39:24.462Z,15.61
2022-07-30T04:39:56.493Z,15.61
2022-07-30T04:40:28.518Z,15.61
2022-07-30T04:41:00.460Z,15.61
2022-07-30T04:41:48.164Z,15.61
2022-07-30T04:42:04.462Z,15.61
2022-07-30T04:42:36.476Z,15.72
2022-07-30T04:43:08.458Z,15.72
2022-07-30T04:43:40.465Z,15.72
2022-07-30T04:44:12.459Z,15.72
2022-07-30T04:44:44.494Z,15.61
2022-07-30T04:45:16.827Z,15.61
2022-07-30T04:45:48.466Z,15.61
2022-07-30T04:46:20.576Z,15.50
2022-07-30T04:46:52.511Z,15.50
2022-07-30T04:47:24.468Z,15.50
2022-07-30T04:47:56.478Z,15.50
2022-07-30T04:48:28.467Z,15.61
2022-07-30T04:49:00.515Z,15.61
2022-07-30T04:49:32.502Z,15.61
2022-07-30T04:50:04.527Z,15.61
2022-07-30T04:50:36.465Z,15.61
2022-07-30T04:51:08.468Z,15.61
2022-07-30T04:51:40.469Z,15.61
2022-07-30T04:52:12.485Z,15.61
2022-07-30T04:52:44.493Z,15.61
2022-07-30T04:53:16.580Z,15.61
2022-07-30T04:53:48.484Z,15.61
2022-07-30T04:54:20.515Z,15.61
2022-07-30T04:54:53.236Z,15.61
2022-07-30T04:55:24.481Z,15.61
2022-07-30T04:55:56.486Z,15.61
2022-07-30T04:56:28.479Z,15.61
2022-07-30T04:57:00.479Z,15.61
2022-07-30T04:57:32.485Z,15.61
2022-07-30T04:58:04.494Z,15.72
2022-07-30T04:58:36.479Z,15.72
2022-07-30T04:59:08.574Z,15.72
2022-07-30T04:59:40.536Z,15.72
2022-07-30T05:00:12.652Z,15.72
2022-07-30T05:00:44.501Z,15.72
2022-07-30T05:01:16.640Z,15.72
2022-07-30T05:01:48.523Z,15.72
2022-07-30T05:02:20.504Z,15.72
2022-07-30T05:02:52.499Z,15.72
2022-07-30T05:03:24.503Z,15.77
2022-07-30T05:03:56.528Z,15.77
2022-07-30T05:04:28.540Z,15.77
2022-07-30T05:05:01.260Z,15.77
2022-07-30T05:05:32.591Z,15.77
2022-07-30T05:06:04.495Z,15.77
2022-07-30T05:06:36.501Z,15.77
2022-07-30T05:07:08.503Z,15.77
2022-07-30T05:07:40.507Z,15.77
2022-07-30T05:08:12.503Z,15.77
2022-07-30T05:08:44.558Z,15.77
2022-07-30T05:09:16.628Z,15.77
2022-07-30T05:09:48.507Z,15.77
2022-07-30T05:10:20.515Z,15.77
2022-07-30T05:10:53.293Z,15.77
2022-07-30T05:11:24.520Z,15.77
2022-07-30T05:11:56.517Z,15.72
2022-07-30T05:12:28.524Z,15.72
2022-07-30T05:13:00.528Z,15.72
2022-07-30T05:13:37.285Z,15.77
2022-07-30T05:14:04.561Z,15.77
2022-07-30T05:14:36.524Z,15.77
2022-07-30T05:15:09.319Z,15.77
2022-07-30T05:15:40.600Z,15.77
2022-07-30T05:16:12.623Z,15.77
2022-07-30T05:16:44.527Z,15.77
2022-07-30T05:17:16.636Z,15.77
2022-07-30T05:17:48.536Z,15.77
2022-07-30T05:18:20.576Z,15.77
2022-07-30T05:18:52.587Z,15.77
2022-07-30T05:19:24.528Z,15.77
2022-07-30T05:19:56.531Z,15.77
2022-07-30T05:20:28.526Z,15.77
2022-07-30T05:21:00.529Z,15.77
2022-07-30T05:21:32.527Z,15.77
2022-07-30T05:22:06.684Z,15.77
2022-07-30T05:22:36.543Z,15.72
2022-07-30T05:23:08.597Z,15.72
2022-07-30T05:23:40.577Z,15.72
2022-07-30T05:24:12.543Z,15.72
2022-07-30T05:24:44.543Z,15.72
2022-07-30T05:25:16.639Z,15.72
2022-07-30T05:25:48.538Z,15.72
2022-07-30T05:26:20.543Z,15.72
2022-07-30T05:26:52.540Z,15.72
2022-07-30T05:27:24.539Z,15.72
2022-07-30T05:27:56.602Z,15.72
2022-07-30T05:28:28.582Z,15.72
2022-07-30T05:29:00.542Z,15.72
2022-07-30T05:29:32.554Z,15.72
2022-07-30T05:30:04.706Z,15.72
2022-07-30T05:30:36.548Z,15.72
2022-07-30T05:31:08.854Z,15.72
2022-07-30T05:31:40.560Z,15.77
2022-07-30T05:32:12.557Z,15.77
2022-07-30T05:32:44.635Z,15.77
2022-07-30T05:33:16.665Z,15.77
2022-07-30T05:33:48.563Z,15.77
2022-07-30T05:34:20.574Z,15.77
2022-07-30T05:34:52.558Z,15.77
2022-07-30T05:35:24.558Z,15.77
2022-07-30T05:35:56.564Z,15.77
2022-07-30T05:36:28.561Z,15.77
2022-07-30T05:37:00.760Z,15.77
2022-07-30T05:37:32.626Z,15.77
2022-07-30T05:38:04.608Z,15.77
2022-07-30T05:38:36.554Z,15.77
2022-07-30T05:39:08.572Z,15.77
2022-07-30T05:39:57.385Z,15.77
2022-07-30T05:40:12.566Z,15.77
2022-07-30T05:40:44.574Z,15.77
2022-07-30T05:41:30.820Z,15.77
2022-07-30T05:41:48.573Z,15.77
2022-07-30T05:42:20.631Z,15.77
2022-07-30T05:42:52.604Z,15.77
2022-07-30T05:43:24.565Z,15.77
2022-07-30T05:43:56.584Z,15.77
2022-07-30T05:44:28.573Z,15.77
2022-07-30T05:45:00.731Z,15.77
2022-07-30T05:45:32.577Z,15.77
2022-07-30T05:46:04.686Z,15.72
2022-07-30T05:46:36.666Z,15.72
2022-07-30T05:47:08.635Z,15.72
2022-07-30T05:47:40.762Z,15.72
2022-07-30T05:48:12.581Z,15.72
2022-07-30T05:48:44.634Z,15.72
2022-07-30T05:49:16.767Z,15.72
2022-07-30T05:49:48.605Z,15.72
2022-07-30T05:50:20.588Z,15.72
2022-07-30T05:50:52.599Z,15.72
2022-07-30T05:51:24.596Z,15.72
2022-07-30T05:51:56.655Z,15.72
2022-07-30T05:52:28.624Z,15.72
2022-07-30T05:53:00.599Z,15.72
2022-07-30T05:53:32.602Z,15.72
2022-07-30T05:54:04.592Z,15.72
2022-07-30T05:54:36.602Z,15.77
2022-07-30T05:55:08.605Z,15.77
2022-07-30T05:55:41.245Z,15.77
2022-07-30T05:56:12.606Z,15.77
2022-07-30T05:56:44.669Z,15.77
2022-07-30T05:57:16.720Z,15.77
2022-07-30T05:57:48.609Z,15.77
2022-07-30T05:58:20.602Z,15.77
2022-07-30T05:58:52.607Z,15.77
2022-07-30T05:59:24.600Z,15.77
2022-07-30T05:59:56.613Z,15.77
2022-07-30T06:00:28.800Z,15.77
2022-07-30T06:01:00.616Z,15.77
2022-07-30T06:01:32.775Z,15.77
2022-07-30T06:02:04.734Z,15.77
2022-07-30T06:02:36.625Z,15.77
2022-07-30T06:03:08.623Z,15.77
2022-07-30T06:03:40.620Z,15.77
2022-07-30T06:04:12.734Z,15.77
2022-07-30T06:04:46.247Z,15.77
2022-07-30T06:05:16.732Z,15.77
2022-07-30T06:05:49.471Z,15.77
2022-07-30T06:06:23.044Z,15.77
2022-07-30T06:06:52.636Z,15.77
2022-07-30T06:07:24.626Z,15.77
2022-07-30T06:07:56.634Z,15.77
2022-07-30T06:08:28.622Z,15.77
2022-07-30T06:09:00.625Z,15.77
2022-07-30T06:09:36.809Z,15.77
2022-07-30T06:10:04.632Z,15.77
2022-07-30T06:10:36.638Z,15.77
2022-07-30T06:11:08.699Z,15.77
2022-07-30T06:11:40.634Z,15.77
2022-07-30T06:12:12.631Z,15.77
2022-07-30T06:12:44.635Z,15.77
2022-07-30T06:13:16.733Z,15.77
2022-07-30T06:19:27.134Z,15.77
2022-07-30T06:19:59.096Z,15.77
2022-07-30T06:20:31.073Z,15.88
2022-07-30T06:21:03.098Z,15.88
2022-07-30T06:22:05.361Z,15.77
2022-07-30T06:22:38.075Z,15.77
2022-07-30T06:23:10.055Z,15.77
2022-07-30T06:23:42.082Z,15.77
2022-07-30T06:24:14.060Z,15.77
2022-07-30T06:24:46.057Z,15.77
2022-07-30T06:25:18.753Z,15.77
2022-07-30T06:25:50.003Z,15.77
2022-07-30T06:26:22.059Z,15.77
2022-07-30T06:26:54.064Z,15.77
2022-07-30T06:27:26.056Z,15.77
2022-07-30T06:27:58.026Z,15.77
2022-07-30T06:28:37.170Z,15.77
2022-07-30T06:29:02.109Z,15.77
2022-07-30T06:29:34.009Z,15.77
2022-07-30T06:30:06.189Z,15.77
2022-07-30T06:30:38.131Z,15.77
2022-07-30T06:31:10.177Z,15.77
2022-07-30T06:31:42.060Z,15.77
2022-07-30T06:32:14.080Z,15.77
2022-07-30T06:32:48.739Z,15.77
2022-07-30T06:33:18.106Z,15.77
2022-07-30T06:33:50.097Z,15.77
2022-07-30T06:34:22.072Z,15.77
2022-07-30T06:35:02.435Z,15.77
2022-07-30T06:35:26.026Z,15.77
2022-07-30T06:35:58.077Z,15.77
2022-07-30T06:36:30.091Z,15.77
2022-07-30T06:37:02.534Z,15.77
2022-07-30T06:38:06.210Z,15.77
2022-07-30T06:38:37.124Z,15.88
2022-07-30T06:39:09.101Z,15.88
2022-07-30T06:39:56.430Z,15.88
2022-07-30T06:40:13.088Z,15.88
2022-07-30T06:40:45.086Z,15.88
2022-07-30T06:41:17.279Z,15.88
2022-07-30T06:41:49.124Z,15.88
2022-07-30T06:42:21.097Z,15.88
2022-07-30T06:42:53.108Z,15.88
2022-07-30T06:43:25.049Z,15.88
2022-07-30T06:43:57.057Z,15.88
2022-07-30T06:44:29.089Z,15.88
2022-07-30T06:45:01.270Z,15.88
2022-07-30T06:45:33.088Z,15.88
2022-07-30T06:46:05.207Z,15.88
2022-07-30T06:46:37.211Z,15.88
2022-07-30T06:47:09.438Z,15.88
2022-07-30T06:47:41.102Z,15.88
2022-07-30T06:48:13.105Z,15.88
2022-07-30T06:48:45.119Z,15.88
2022-07-30T06:49:17.324Z,15.88
2022-07-30T06:49:49.103Z,15.88
2022-07-30T06:50:21.143Z,15.88
2022-07-30T06:50:53.050Z,15.88
2022-07-30T06:51:25.061Z,15.88
2022-07-30T06:51:57.105Z,15.88
2022-07-30T06:52:29.156Z,15.88
2022-07-30T06:53:01.110Z,15.88
2022-07-30T06:53:33.062Z,15.88
2022-07-30T06:54:05.104Z,15.88
2022-07-30T06:54:37.099Z,15.88
2022-07-30T06:55:09.069Z,15.88
2022-07-30T06:55:41.190Z,15.88
2022-07-30T06:56:13.145Z,15.88
2022-07-30T06:56:45.104Z,15.88
2022-07-30T06:57:17.234Z,16.00
2022-07-30T06:57:49.115Z,16.00
2022-07-30T06:58:25.503Z,16.00
2022-07-30T06:58:53.077Z,16.00
2022-07-30T06:59:25.087Z,15.88
2022-07-30T06:59:57.694Z,15.88
2022-07-30T07:00:29.295Z,16.00
2022-07-30T07:01:01.264Z,16.00
2022-07-30T07:01:33.175Z,16.00
2022-07-30T07:02:05.080Z,16.00